Time;durP1;ratioP1;P1;durP2;ratioP2;P2;SDS_P1;SDS_P2;PMS_P1;PMS_P2;Temp;Humidity;BMP_temperature;BMP_pressure;BME280_temperature;BME280_humidity;BME280_pressure;Samples;Min_cycle;Max_cycle;Signal;HPM_P1;HPM_P2
2023/08/26 00:01:56;;;;;;;3.78;1.38;;;;;;;;;;5011110;28;20240;-70
2023/08/26 00:04:25;;;;;;;2.05;0.90;;;;;;;;;;5027099;28;20561;-69
2023/08/26 00:06:52;;;;;;;1.15;1.00;;;;;;;;;;5011527;28;20217;-69
2023/08/26 00:09:19;;;;;;;1.00;0.90;;;;;;;;;;5018412;28;20208;-69
2023/08/26 00:11:46;;;;;;;2.53;1.70;;;;;;;;;;5001615;28;20216;-69
2023/08/26 00:14:13;;;;;;;4.40;1.15;;;;;;;;;;5007075;28;20243;-69
2023/08/26 00:16:40;;;;;;;1.10;1.00;;;;;;;;;;5005094;28;20233;-69
2023/08/26 00:19:07;;;;;;;0.80;0.80;;;;;;;;;;5005331;28;20224;-69
2023/08/26 00:21:37;;;;;;;3.63;1.17;;;;;;;;;;5020743;28;20212;-69
2023/08/26 00:24:04;;;;;;;2.10;1.00;;;;;;;;;;5006786;28;20341;-70
2023/08/26 00:26:31;;;;;;;2.45;1.00;;;;;;;;;;5022263;28;20311;-69
2023/08/26 00:28:58;;;;;;;2.33;0.80;;;;;;;;;;5002297;28;20216;-69
2023/08/26 00:31:26;;;;;;;3.13;1.00;;;;;;;;;;5003371;28;20212;-69
2023/08/26 00:33:53;;;;;;;1.83;0.90;;;;;;;;;;5006598;28;20509;-70
2023/08/26 00:36:20;;;;;;;1.38;0.88;;;;;;;;;;5016794;28;20216;-69
2023/08/26 00:38:48;;;;;;;1.90;0.80;;;;;;;;;;5000975;28;22246;-69
2023/08/26 00:41:15;;;;;;;3.10;0.85;;;;;;;;;;5010425;28;20674;-69
2023/08/26 00:43:42;;;;;;;1.20;0.75;;;;;;;;;;5013414;28;20205;-69
2023/08/26 00:46:09;;;;;;;2.45;0.77;;;;;;;;;;5004820;28;20209;-69
2023/08/26 00:48:36;;;;;;;1.00;0.90;;;;;;;;;;5000969;28;20209;-69
2023/08/26 00:51:04;;;;;;;0.80;0.80;;;;;;;;;;5005898;28;20263;-69
2023/08/26 00:53:31;;;;;;;2.63;0.70;;;;;;;;;;5021439;28;20746;-69
2023/08/26 00:56:01;;;;;;;0.70;0.70;;;;;;;;;;5022343;28;20208;-69
2023/08/26 00:58:28;;;;;;;1.83;0.80;;;;;;;;;;5008517;28;20232;-69
2023/08/26 01:00:55;;;;;;;3.25;0.80;;;;;;;;;;5002266;28;20213;-69
2023/08/26 01:03:23;;;;;;;1.08;1.00;;;;;;;;;;5019313;28;20227;-69
2023/08/26 01:05:50;;;;;;;2.05;0.88;;;;;;;;;;5022145;28;20215;-69
2023/08/26 01:08:17;;;;;;;1.08;0.93;;;;;;;;;;5018090;28;20829;-68
2023/08/26 01:10:52;;;;;;;1.73;1.00;;;;;;;;;;5012351;28;20698;-68
2023/08/26 01:13:22;;;;;;;1.75;0.75;;;;;;;;;;5004008;28;20200;-69
2023/08/26 01:15:50;;;;;;;1.17;0.70;;;;;;;;;;5000516;28;20209;-69
2023/08/26 01:18:18;;;;;;;0.90;0.90;;;;;;;;;;5000123;28;20236;-69
2023/08/26 01:20:45;;;;;;;0.82;0.82;;;;;;;;;;5007881;28;20216;-68
2023/08/26 01:23:17;;;;;;;3.03;0.90;;;;;;;;;;5014144;28;20208;-68
2023/08/26 01:25:46;;;;;;;2.83;1.08;;;;;;;;;;5004030;28;20215;-68
2023/08/26 01:28:14;;;;;;;1.75;1.08;;;;;;;;;;5015519;28;20219;-70
2023/08/26 01:30:42;;;;;;;2.67;1.00;;;;;;;;;;5003192;28;20686;-70
2023/08/26 01:33:11;;;;;;;3.55;1.40;;;;;;;;;;5003843;28;20201;-70
2023/08/26 01:35:40;;;;;;;1.73;1.50;;;;;;;;;;5003787;28;20219;-70
2023/08/26 01:38:08;;;;;;;1.17;1.17;;;;;;;;;;5013066;28;20232;-71
2023/08/26 01:40:35;;;;;;;1.05;1.05;;;;;;;;;;5011056;28;20232;-70
2023/08/26 01:43:04;;;;;;;1.63;1.38;;;;;;;;;;5016000;28;20205;-69
2023/08/26 01:45:31;;;;;;;1.05;1.05;;;;;;;;;;5022847;28;20204;-68
2023/08/26 01:47:58;;;;;;;1.75;1.25;;;;;;;;;;5003434;28;20212;-68
2023/08/26 01:50:25;;;;;;;3.75;1.30;;;;;;;;;;5005338;28;20209;-68
2023/08/26 01:52:52;;;;;;;1.77;1.40;;;;;;;;;;5019257;28;20593;-68
2023/08/26 01:55:19;;;;;;;3.10;2.10;;;;;;;;;;5006098;28;20324;-69
2023/08/26 01:57:46;;;;;;;2.67;1.55;;;;;;;;;;5008792;28;20600;-70
2023/08/26 02:00:16;;;;;;;2.10;1.63;;;;;;;;;;5019830;28;20212;-70
2023/08/26 02:02:43;;;;;;;1.60;1.50;;;;;;;;;;5016619;28;20236;-71
2023/08/26 02:05:10;;;;;;;3.42;1.80;;;;;;;;;;5001692;28;20209;-71
2023/08/26 02:07:37;;;;;;;2.00;1.90;;;;;;;;;;5003294;28;20215;-71
2023/08/26 02:10:04;;;;;;;2.08;1.88;;;;;;;;;;5002940;28;20788;-71
2023/08/26 02:12:32;;;;;;;2.72;2.00;;;;;;;;;;5005993;28;20227;-71
2023/08/26 02:15:01;;;;;;;2.72;2.28;;;;;;;;;;5020733;28;20212;-71
2023/08/26 02:17:29;;;;;;;2.40;2.30;;;;;;;;;;5015210;28;20232;-71
2023/08/26 02:19:56;;;;;;;2.92;2.58;;;;;;;;;;5003116;28;20229;-70
2023/08/26 02:22:23;;;;;;;2.85;2.63;;;;;;;;;;5016208;28;20213;-71
2023/08/26 02:24:51;;;;;;;3.67;3.38;;;;;;;;;;5018375;28;20656;-70
2023/08/26 02:27:18;;;;;;;4.22;3.20;;;;;;;;;;5023250;28;20687;-70
2023/08/26 02:29:45;;;;;;;2.95;2.85;;;;;;;;;;5011795;28;20213;-70
2023/08/26 02:32:13;;;;;;;3.42;3.22;;;;;;;;;;5001192;28;20223;-71
2023/08/26 02:34:41;;;;;;;6.95;3.28;;;;;;;;;;5000433;28;20673;-70
2023/08/26 02:37:08;;;;;;;3.35;3.05;;;;;;;;;;5004844;28;20224;-71
2023/08/26 02:39:35;;;;;;;3.40;3.20;;;;;;;;;;5002436;28;20244;-70
2023/08/26 02:42:02;;;;;;;5.25;3.05;;;;;;;;;;5017931;28;20465;-70
2023/08/26 02:44:29;;;;;;;3.53;3.22;;;;;;;;;;4999457;28;20217;-70
2023/08/26 02:46:56;;;;;;;3.88;3.63;;;;;;;;;;5002487;28;20224;-70
2023/08/26 02:49:23;;;;;;;3.53;3.22;;;;;;;;;;5002995;28;20205;-70
2023/08/26 02:51:52;;;;;;;5.50;3.72;;;;;;;;;;5016307;28;20204;-71
2023/08/26 02:54:19;;;;;;;4.10;3.22;;;;;;;;;;5009274;28;20836;-71
2023/08/26 02:56:46;;;;;;;6.35;3.60;;;;;;;;;;4999253;28;20717;-70
2023/08/26 02:59:13;;;;;;;3.88;3.58;;;;;;;;;;5003837;28;20336;-70
2023/08/26 03:01:40;;;;;;;5.35;3.85;;;;;;;;;;5007599;28;20331;-71
2023/08/26 03:04:07;;;;;;;4.97;4.13;;;;;;;;;;5017684;28;20728;-70
2023/08/26 03:06:34;;;;;;;4.75;3.92;;;;;;;;;;5016409;28;20219;-71
2023/08/26 03:09:03;;;;;;;3.90;3.60;;;;;;;;;;5021216;28;20211;-70
2023/08/26 03:11:30;;;;;;;7.20;4.18;;;;;;;;;;5015262;28;20214;-70
2023/08/26 03:13:57;;;;;;;5.18;3.50;;;;;;;;;;5020139;28;20204;-70
2023/08/26 03:16:24;;;;;;;5.40;3.30;;;;;;;;;;5016143;28;20231;-70
2023/08/26 03:18:51;;;;;;;4.75;3.38;;;;;;;;;;5018014;28;20753;-71
2023/08/26 03:21:18;;;;;;;3.55;3.25;;;;;;;;;;5021095;28;20227;-70
2023/08/26 03:23:45;;;;;;;6.20;3.80;;;;;;;;;;5000492;28;20307;-70
2023/08/26 03:26:13;;;;;;;6.78;4.05;;;;;;;;;;5000220;28;20220;-71
2023/08/26 03:28:40;;;;;;;5.10;3.45;;;;;;;;;;5002836;28;20209;-70
2023/08/26 03:31:07;;;;;;;4.80;3.55;;;;;;;;;;5017766;28;20211;-70
2023/08/26 03:33:35;;;;;;;4.20;3.72;;;;;;;;;;5005805;28;20215;-70
2023/08/26 03:36:04;;;;;;;3.80;3.40;;;;;;;;;;4998498;28;20201;-70
2023/08/26 03:38:32;;;;;;;4.50;3.22;;;;;;;;;;5013506;28;20209;-69
2023/08/26 03:40:59;;;;;;;3.30;3.03;;;;;;;;;;5003436;28;20645;-69
2023/08/26 03:43:27;;;;;;;6.70;3.50;;;;;;;;;;5004810;28;20212;-70
2023/08/26 03:45:54;;;;;;;2.92;2.83;;;;;;;;;;4998355;28;20594;-70
2023/08/26 03:48:21;;;;;;;5.20;3.25;;;;;;;;;;4998742;28;20292;-70
2023/08/26 03:50:52;;;;;;;6.05;3.20;;;;;;;;;;5003331;28;20702;-70
2023/08/26 03:53:19;;;;;;;2.70;2.58;;;;;;;;;;5013581;28;20204;-70
2023/08/26 03:55:46;;;;;;;3.08;2.88;;;;;;;;;;5000893;28;20220;-70
2023/08/26 03:58:13;;;;;;;3.00;2.70;;;;;;;;;;5014252;28;20701;-70
2023/08/26 04:00:41;;;;;;;4.43;2.72;;;;;;;;;;5019641;28;20607;-71
2023/08/26 04:03:09;;;;;;;3.38;2.90;;;;;;;;;;5022327;28;20713;-70
2023/08/26 04:05:36;;;;;;;4.45;3.28;;;;;;;;;;5017474;28;20215;-70
2023/08/26 04:08:03;;;;;;;2.88;2.50;;;;;;;;;;5019986;28;20204;-70
2023/08/26 04:10:30;;;;;;;3.08;2.88;;;;;;;;;;5009581;28;20213;-71
2023/08/26 04:13:01;;;;;;;3.25;2.58;;;;;;;;;;5000085;28;20205;-71
2023/08/26 04:15:28;;;;;;;2.97;2.47;;;;;;;;;;4999691;28;20680;-70
2023/08/26 04:17:57;;;;;;;2.33;2.28;;;;;;;;;;5011442;28;20236;-70
2023/08/26 04:20:24;;;;;;;2.42;2.33;;;;;;;;;;5017568;28;20235;-70
2023/08/26 04:22:51;;;;;;;7.03;2.65;;;;;;;;;;5001188;28;20220;-70
2023/08/26 04:25:18;;;;;;;2.95;2.13;;;;;;;;;;5006539;28;20204;-70
2023/08/26 04:27:45;;;;;;;2.25;2.15;;;;;;;;;;5016586;28;20220;-70
2023/08/26 04:30:13;;;;;;;2.60;2.28;;;;;;;;;;5005137;28;20216;-70
2023/08/26 04:32:40;;;;;;;5.10;2.40;;;;;;;;;;5011178;28;20212;-71
2023/08/26 04:35:08;;;;;;;2.38;2.17;;;;;;;;;;5001149;28;20212;-70
2023/08/26 04:37:37;;;;;;;3.65;2.30;;;;;;;;;;5003725;28;20217;-70
2023/08/26 04:40:09;;;;;;;2.97;2.47;;;;;;;;;;5006320;28;20225;-70
2023/08/26 04:42:36;;;;;;;2.20;2.20;;;;;;;;;;5012842;28;20215;-70
2023/08/26 04:45:04;;;;;;;2.60;2.40;;;;;;;;;;5020730;28;21109;-70
2023/08/26 04:47:31;;;;;;;2.92;2.08;;;;;;;;;;5019205;28;20645;-71
2023/08/26 04:49:59;;;;;;;2.50;2.30;;;;;;;;;;5008302;28;20208;-69
2023/08/26 04:52:27;;;;;;;2.20;2.10;;;;;;;;;;5006227;28;20209;-70
2023/08/26 04:54:54;;;;;;;2.40;2.20;;;;;;;;;;5001167;28;20224;-70
2023/08/26 04:57:22;;;;;;;1.98;1.88;;;;;;;;;;5019350;28;20211;-70
2023/08/26 04:59:49;;;;;;;2.75;1.90;;;;;;;;;;5021754;28;20220;-70
2023/08/26 05:02:16;;;;;;;3.53;1.63;;;;;;;;;;5019952;28;20252;-70
2023/08/26 05:04:44;;;;;;;1.95;1.83;;;;;;;;;;5012683;28;20338;-70
2023/08/26 05:07:11;;;;;;;2.60;1.77;;;;;;;;;;5013187;28;20301;-70
2023/08/26 05:09:40;;;;;;;1.65;1.60;;;;;;;;;;5007546;28;20205;-70
2023/08/26 05:12:07;;;;;;;1.75;1.65;;;;;;;;;;5009812;28;20201;-70
2023/08/26 05:14:34;;;;;;;3.75;1.63;;;;;;;;;;5010481;28;20215;-70
2023/08/26 05:17:01;;;;;;;1.88;1.60;;;;;;;;;;5015936;28;20888;-69
2023/08/26 05:19:28;;;;;;;1.73;1.70;;;;;;;;;;5003808;28;20241;-70
2023/08/26 05:21:57;;;;;;;3.92;1.80;;;;;;;;;;5002366;28;20660;-70
2023/08/26 05:24:24;;;;;;;2.05;1.83;;;;;;;;;;5014683;28;20231;-70
2023/08/26 05:26:52;;;;;;;1.88;1.27;;;;;;;;;;5011058;28;20597;-70
2023/08/26 05:29:20;;;;;;;3.53;2.00;;;;;;;;;;5010656;28;20227;-70
2023/08/26 05:31:47;;;;;;;1.83;1.65;;;;;;;;;;5017115;28;20620;-70
2023/08/26 05:34:14;;;;;;;2.45;1.50;;;;;;;;;;5006583;28;20201;-70
2023/08/26 05:36:41;;;;;;;4.65;1.65;;;;;;;;;;5013573;28;20246;-70
2023/08/26 05:39:08;;;;;;;1.10;1.10;;;;;;;;;;5019493;28;20219;-70
2023/08/26 05:41:35;;;;;;;2.35;1.30;;;;;;;;;;5010119;28;20209;-71
2023/08/26 05:44:04;;;;;;;3.15;1.63;;;;;;;;;;5010137;28;20224;-60
2023/08/26 05:46:31;;;;;;;4.20;1.25;;;;;;;;;;5008682;28;20209;-61
2023/08/26 05:48:58;;;;;;;2.78;1.10;;;;;;;;;;5016804;28;20216;-60
2023/08/26 05:51:25;;;;;;;1.10;1.10;;;;;;;;;;5011393;28;20209;-60
2023/08/26 05:53:52;;;;;;;1.48;1.20;;;;;;;;;;5004570;28;20205;-60
2023/08/26 05:56:19;;;;;;;1.10;1.10;;;;;;;;;;5018614;28;20243;-60
2023/08/26 05:58:46;;;;;;;2.50;1.25;;;;;;;;;;5013154;28;20205;-61
2023/08/26 06:01:14;;;;;;;1.95;1.08;;;;;;;;;;5008265;28;20247;-60
2023/08/26 06:03:41;;;;;;;1.15;1.05;;;;;;;;;;5005744;28;20201;-60
2023/08/26 06:06:09;;;;;;;1.73;1.08;;;;;;;;;;5015454;28;20666;-60
2023/08/26 06:08:36;;;;;;;1.17;1.05;;;;;;;;;;5022160;28;20666;-60
2023/08/26 06:11:03;;;;;;;1.05;1.05;;;;;;;;;;5014311;28;20209;-60
2023/08/26 06:13:30;;;;;;;2.10;1.00;;;;;;;;;;5010018;28;20757;-61
2023/08/26 06:15:58;;;;;;;1.27;1.20;;;;;;;;;;5020216;28;20204;-60
2023/08/26 06:18:26;;;;;;;1.90;1.00;;;;;;;;;;5016215;28;20221;-60
2023/08/26 06:20:54;;;;;;;0.93;0.93;;;;;;;;;;5004869;28;20221;-60
2023/08/26 06:23:21;;;;;;;1.75;0.90;;;;;;;;;;5009405;28;20204;-60
2023/08/26 06:25:51;;;;;;;0.75;0.75;;;;;;;;;;5014706;28;20205;-60
2023/08/26 06:28:19;;;;;;;1.38;1.00;;;;;;;;;;5015076;28;20201;-61
2023/08/26 06:30:46;;;;;;;1.17;0.90;;;;;;;;;;5010264;28;20236;-61
2023/08/26 06:33:13;;;;;;;1.17;0.98;;;;;;;;;;5007387;28;20750;-60
2023/08/26 06:35:41;;;;;;;0.68;0.68;;;;;;;;;;5007770;28;20586;-60
2023/08/26 06:38:08;;;;;;;1.95;1.05;;;;;;;;;;5014036;28;20200;-60
2023/08/26 06:40:35;;;;;;;0.93;0.88;;;;;;;;;;5011480;28;20228;-60
2023/08/26 06:43:03;;;;;;;2.58;1.10;;;;;;;;;;5009851;28;20232;-60
2023/08/26 06:45:31;;;;;;;0.80;0.80;;;;;;;;;;5003814;28;20211;-60
2023/08/26 06:47:58;;;;;;;0.70;0.70;;;;;;;;;;5009813;28;20578;-59
2023/08/26 06:50:25;;;;;;;0.75;0.75;;;;;;;;;;5012144;28;20220;-59
2023/08/26 06:52:55;;;;;;;0.90;0.90;;;;;;;;;;5011933;28;20671;-60
2023/08/26 06:55:22;;;;;;;0.70;0.70;;;;;;;;;;5010627;28;20283;-59
2023/08/26 06:57:49;;;;;;;0.82;0.82;;;;;;;;;;5007036;28;20529;-60
2023/08/26 07:00:18;;;;;;;2.47;0.93;;;;;;;;;;5010926;28;20232;-60
2023/08/26 07:02:45;;;;;;;0.95;0.70;;;;;;;;;;5010334;28;20247;-62
2023/08/26 07:05:12;;;;;;;1.05;0.70;;;;;;;;;;5008785;28;20201;-62
2023/08/26 07:07:39;;;;;;;1.42;0.77;;;;;;;;;;5010270;28;20208;-59
2023/08/26 07:10:08;;;;;;;1.25;0.80;;;;;;;;;;5012082;28;20198;-62
2023/08/26 07:12:35;;;;;;;0.68;0.68;;;;;;;;;;5011525;28;20208;-60
2023/08/26 07:15:03;;;;;;;0.65;0.65;;;;;;;;;;5009894;28;20204;-60
2023/08/26 07:17:30;;;;;;;2.10;0.88;;;;;;;;;;5008429;28;20228;-59
2023/08/26 07:19:57;;;;;;;0.80;0.80;;;;;;;;;;5015724;28;20224;-60
2023/08/26 07:22:24;;;;;;;0.88;0.70;;;;;;;;;;5009867;28;20209;-60
2023/08/26 07:24:51;;;;;;;2.30;0.90;;;;;;;;;;5001670;28;20593;-61
2023/08/26 07:27:19;;;;;;;1.63;0.70;;;;;;;;;;4998376;28;20212;-60
2023/08/26 07:29:46;;;;;;;3.00;0.70;;;;;;;;;;4998133;28;20208;-60
2023/08/26 07:32:13;;;;;;;0.95;0.80;;;;;;;;;;5003546;28;20227;-60
2023/08/26 07:34:41;;;;;;;0.68;0.68;;;;;;;;;;5000221;28;20215;-60
2023/08/26 07:37:08;;;;;;;0.68;0.68;;;;;;;;;;4997813;28;20707;-60
2023/08/26 07:39:38;;;;;;;1.67;0.98;;;;;;;;;;4999827;28;20213;-64
2023/08/26 07:42:05;;;;;;;3.22;0.70;;;;;;;;;;5002974;28;20205;-59
2023/08/26 07:44:33;;;;;;;0.63;0.63;;;;;;;;;;4999572;28;20782;-61
2023/08/26 07:47:00;;;;;;;3.85;1.00;;;;;;;;;;4998458;28;20220;-62
2023/08/26 07:49:27;;;;;;;1.15;0.88;;;;;;;;;;5000310;28;20216;-60
2023/08/26 07:51:55;;;;;;;0.65;0.60;;;;;;;;;;5019825;28;20201;-60
2023/08/26 07:54:22;;;;;;;1.00;0.80;;;;;;;;;;5022727;28;20208;-60
2023/08/26 07:56:49;;;;;;;0.75;0.60;;;;;;;;;;5011682;28;20216;-62
2023/08/26 07:59:16;;;;;;;1.65;0.60;;;;;;;;;;4997382;28;20229;-60
2023/08/26 08:01:44;;;;;;;2.95;0.70;;;;;;;;;;5013856;28;20232;-68
2023/08/26 08:04:13;;;;;;;1.98;0.80;;;;;;;;;;5022872;28;20211;-64
2023/08/26 08:06:40;;;;;;;1.30;0.70;;;;;;;;;;5023458;28;20303;-61
2023/08/26 08:09:07;;;;;;;1.48;0.70;;;;;;;;;;5017097;28;20201;-61
2023/08/26 08:11:34;;;;;;;2.03;0.80;;;;;;;;;;5004972;28;20211;-60
2023/08/26 08:14:01;;;;;;;4.00;0.70;;;;;;;;;;5006884;28;20217;-61
2023/08/26 08:16:28;;;;;;;1.27;0.90;;;;;;;;;;5009836;28;20204;-63
2023/08/26 08:18:57;;;;;;;1.67;0.90;;;;;;;;;;5019691;28;20259;-60
2023/08/26 08:21:24;;;;;;;1.50;0.88;;;;;;;;;;5002455;28;20225;-60
2023/08/26 08:23:51;;;;;;;1.38;0.80;;;;;;;;;;5004789;28;20594;-60
2023/08/26 08:26:18;;;;;;;1.85;0.63;;;;;;;;;;5001833;28;20208;-61
2023/08/26 08:28:45;;;;;;;0.68;0.68;;;;;;;;;;4999871;28;20213;-61
2023/08/26 08:31:12;;;;;;;1.20;0.90;;;;;;;;;;5000207;28;20213;-61
2023/08/26 08:33:39;;;;;;;0.75;0.75;;;;;;;;;;5003581;28;20570;-62
2023/08/26 08:36:08;;;;;;;0.80;0.80;;;;;;;;;;5005206;28;20209;-61
2023/08/26 08:38:35;;;;;;;1.23;0.60;;;;;;;;;;5013795;28;20222;-60
2023/08/26 08:41:02;;;;;;;3.22;0.73;;;;;;;;;;5025268;28;20369;-62
2023/08/26 08:43:30;;;;;;;1.80;0.70;;;;;;;;;;5007897;28;20224;-60
2023/08/26 08:45:58;;;;;;;0.63;0.60;;;;;;;;;;5017812;28;20211;-60
2023/08/26 08:48:25;;;;;;;0.55;0.55;;;;;;;;;;5002962;28;20236;-61
2023/08/26 08:50:52;;;;;;;2.22;0.70;;;;;;;;;;5001268;28;20205;-60
2023/08/26 08:53:25;;;;;;;2.30;0.82;;;;;;;;;;5000834;28;20667;-60
2023/08/26 08:55:53;;;;;;;1.58;0.80;;;;;;;;;;5000940;28;20224;-60
2023/08/26 08:58:21;;;;;;;0.95;0.90;;;;;;;;;;4997624;28;20320;-61
2023/08/26 09:00:48;;;;;;;0.75;0.60;;;;;;;;;;5003440;28;20279;-60
2023/08/26 09:03:16;;;;;;;0.90;0.90;;;;;;;;;;5005015;28;20593;-61
2023/08/26 09:05:43;;;;;;;1.00;0.95;;;;;;;;;;5018012;28;20219;-61
2023/08/26 09:08:11;;;;;;;0.90;0.68;;;;;;;;;;5005950;28;20213;-61
2023/08/26 09:10:39;;;;;;;1.75;0.70;;;;;;;;;;5004041;28;20205;-60
2023/08/26 09:13:06;;;;;;;1.40;0.80;;;;;;;;;;5006574;28;20201;-61
2023/08/26 09:15:33;;;;;;;1.20;1.10;;;;;;;;;;5003363;28;20212;-61
2023/08/26 09:18:02;;;;;;;0.65;0.65;;;;;;;;;;5002758;28;20233;-60
2023/08/26 09:20:30;;;;;;;1.00;0.80;;;;;;;;;;5008204;28;20315;-60
2023/08/26 09:23:04;;;;;;;2.95;0.95;;;;;;;;;;5023300;28;20840;-60
2023/08/26 09:25:31;;;;;;;0.80;0.80;;;;;;;;;;5023076;28;20219;-61
2023/08/26 09:28:00;;;;;;;1.17;0.77;;;;;;;;;;5020181;28;20236;-60
2023/08/26 09:30:27;;;;;;;0.55;0.55;;;;;;;;;;5014293;28;20217;-60
2023/08/26 09:32:55;;;;;;;1.60;0.88;;;;;;;;;;5009585;28;20216;-60
2023/08/26 09:35:22;;;;;;;3.40;0.77;;;;;;;;;;5005251;28;20209;-61
2023/08/26 09:37:50;;;;;;;1.42;0.57;;;;;;;;;;5020553;28;20204;-60
2023/08/26 09:40:20;;;;;;;0.60;0.60;;;;;;;;;;5019292;28;20897;-60
2023/08/26 09:42:47;;;;;;;0.60;0.60;;;;;;;;;;5019588;28;20212;-61
2023/08/26 09:45:17;;;;;;;0.55;0.50;;;;;;;;;;5024933;28;20211;-60
2023/08/26 09:47:46;;;;;;;1.20;0.70;;;;;;;;;;5006294;28;20583;-60
2023/08/26 09:50:13;;;;;;;0.98;0.70;;;;;;;;;;4999511;28;20212;-60
2023/08/26 09:52:43;;;;;;;0.60;0.60;;;;;;;;;;4999482;28;20216;-60
2023/08/26 09:55:10;;;;;;;2.83;0.77;;;;;;;;;;5003489;28;20213;-60
2023/08/26 09:57:37;;;;;;;0.75;0.50;;;;;;;;;;5013165;28;20295;-60
2023/08/26 10:00:05;;;;;;;0.60;0.60;;;;;;;;;;5024392;28;20204;-60
2023/08/26 10:02:34;;;;;;;1.13;0.75;;;;;;;;;;5020610;28;20240;-60
2023/08/26 10:05:04;;;;;;;1.02;0.75;;;;;;;;;;5022691;28;20212;-60
2023/08/26 10:07:32;;;;;;;1.05;0.60;;;;;;;;;;5007174;28;20256;-60
2023/08/26 10:10:08;;;;;;;0.90;0.57;;;;;;;;;;5001383;28;20301;-60
2023/08/26 10:12:40;;;;;;;1.00;0.70;;;;;;;;;;5004532;28;20217;-60
2023/08/26 10:15:09;;;;;;;0.65;0.65;;;;;;;;;;5022664;28;20274;-60
2023/08/26 10:17:38;;;;;;;1.27;0.50;;;;;;;;;;5010295;28;20236;-61
2023/08/26 10:20:06;;;;;;;2.83;0.80;;;;;;;;;;5005482;28;20216;-61
2023/08/26 10:22:33;;;;;;;1.92;0.50;;;;;;;;;;5007745;28;20290;-59
2023/08/26 10:25:00;;;;;;;0.80;0.80;;;;;;;;;;5011588;28;20208;-61
2023/08/26 10:27:28;;;;;;;0.30;0.30;;;;;;;;;;5012205;28;20220;-61
2023/08/26 10:29:55;;;;;;;2.15;0.60;;;;;;;;;;5000653;28;20213;-60
2023/08/26 10:32:23;;;;;;;0.50;0.50;;;;;;;;;;5001621;28;20303;-61
2023/08/26 10:34:54;;;;;;;1.52;0.70;;;;;;;;;;4998985;28;20789;-61
2023/08/26 10:37:21;;;;;;;0.63;0.50;;;;;;;;;;5002030;28;20236;-61
2023/08/26 10:39:49;;;;;;;0.90;0.50;;;;;;;;;;5001875;28;20577;-61
2023/08/26 10:42:16;;;;;;;0.47;0.47;;;;;;;;;;5002230;28;20232;-61
2023/08/26 10:44:46;;;;;;;0.52;0.52;;;;;;;;;;5006291;28;20204;-61
2023/08/26 10:47:13;;;;;;;0.50;0.50;;;;;;;;;;5020778;28;20299;-63
2023/08/26 10:49:40;;;;;;;3.03;0.60;;;;;;;;;;5011013;28;20209;-62
2023/08/26 10:52:16;;;;;;;6.32;2.78;;;;;;;;;;5004181;28;20221;-61
2023/08/26 10:54:44;;;;;;;0.52;0.52;;;;;;;;;;4998752;28;20258;-64
2023/08/26 10:57:11;;;;;;;1.65;0.90;;;;;;;;;;5017112;28;20208;-61
2023/08/26 10:59:38;;;;;;;0.65;0.65;;;;;;;;;;5017921;28;20219;-62
2023/08/26 11:02:08;;;;;;;0.68;0.68;;;;;;;;;;5019726;28;20236;-61
2023/08/26 11:04:37;;;;;;;3.10;0.80;;;;;;;;;;5021878;28;20282;-64
2023/08/26 11:07:05;;;;;;;3.35;0.70;;;;;;;;;;5009074;28;20209;-60
2023/08/26 11:09:34;;;;;;;3.00;0.60;;;;;;;;;;5001349;28;20205;-67
2023/08/26 11:12:01;;;;;;;3.83;0.50;;;;;;;;;;5003886;28;20213;-72
2023/08/26 11:14:32;;;;;;;1.85;0.70;;;;;;;;;;5003281;28;20215;-72
2023/08/26 11:17:02;;;;;;;3.85;0.60;;;;;;;;;;5019190;28;20592;-71
2023/08/26 11:19:29;;;;;;;0.60;0.60;;;;;;;;;;5017655;28;21227;-72
2023/08/26 11:21:57;;;;;;;0.52;0.40;;;;;;;;;;5018832;28;20597;-60
2023/08/26 11:24:30;;;;;;;2.22;0.50;;;;;;;;;;5002239;28;20570;-68
2023/08/26 11:26:59;;;;;;;4.60;0.55;;;;;;;;;;5020928;28;20224;-64
2023/08/26 11:29:26;;;;;;;1.17;0.50;;;;;;;;;;5023042;28;20226;-63
2023/08/26 11:31:53;;;;;;;0.88;0.50;;;;;;;;;;5019893;28;20208;-63
2023/08/26 11:34:24;;;;;;;0.52;0.30;;;;;;;;;;5018118;28;20565;-64
2023/08/26 11:36:54;;;;;;;1.70;0.63;;;;;;;;;;5018313;28;20239;-62
2023/08/26 11:39:21;;;;;;;0.50;0.50;;;;;;;;;;5022544;28;20310;-65
2023/08/26 11:41:49;;;;;;;0.45;0.45;;;;;;;;;;5021670;28;20247;-64
2023/08/26 11:44:17;;;;;;;0.50;0.50;;;;;;;;;;5016692;28;20215;-64
2023/08/26 11:46:44;;;;;;;0.47;0.47;;;;;;;;;;5018278;28;20216;-65
2023/08/26 11:49:12;;;;;;;0.45;0.45;;;;;;;;;;5023562;28;20208;-64
2023/08/26 11:51:41;;;;;;;0.75;0.60;;;;;;;;;;5019112;28;20228;-64
2023/08/26 11:54:09;;;;;;;0.50;0.50;;;;;;;;;;4999991;28;20217;-64
2023/08/26 11:56:36;;;;;;;0.60;0.60;;;;;;;;;;5007613;28;20282;-64
2023/08/26 11:59:04;;;;;;;0.55;0.40;;;;;;;;;;5021408;28;20231;-64
2023/08/26 12:01:33;;;;;;;0.38;0.38;;;;;;;;;;5005512;28;20624;-64
2023/08/26 12:04:00;;;;;;;0.57;0.40;;;;;;;;;;5008285;28;20220;-64
2023/08/26 12:06:27;;;;;;;0.40;0.40;;;;;;;;;;5008080;28;20205;-63
2023/08/26 12:08:54;;;;;;;0.60;0.60;;;;;;;;;;5003596;28;20205;-65
2023/08/26 12:11:22;;;;;;;2.28;0.40;;;;;;;;;;5016462;28;20579;-64
2023/08/26 12:13:49;;;;;;;2.83;0.50;;;;;;;;;;5021067;28;20213;-64
2023/08/26 12:16:17;;;;;;;0.57;0.50;;;;;;;;;;5003659;28;20213;-64
2023/08/26 12:18:46;;;;;;;1.45;0.55;;;;;;;;;;5002156;28;20213;-65
2023/08/26 12:21:13;;;;;;;1.40;0.40;;;;;;;;;;5003902;28;20239;-65
2023/08/26 12:23:40;;;;;;;0.63;0.63;;;;;;;;;;5001914;28;20217;-65
2023/08/26 12:26:12;;;;;;;0.93;0.52;;;;;;;;;;5003616;28;20212;-64
2023/08/26 12:28:41;;;;;;;0.50;0.50;;;;;;;;;;5013005;28;20200;-64
2023/08/26 12:31:08;;;;;;;0.50;0.50;;;;;;;;;;5018828;28;20205;-64
2023/08/26 12:33:35;;;;;;;0.60;0.60;;;;;;;;;;5014493;28;20216;-64
2023/08/26 12:36:03;;;;;;;0.90;0.43;;;;;;;;;;5003480;28;20217;-64
2023/08/26 12:38:30;;;;;;;0.50;0.50;;;;;;;;;;5001659;28;20271;-65
2023/08/26 12:40:58;;;;;;;1.30;0.40;;;;;;;;;;4998376;28;20237;-65
2023/08/26 12:43:25;;;;;;;0.40;0.40;;;;;;;;;;5000200;28;20240;-64
2023/08/26 12:45:52;;;;;;;0.60;0.60;;;;;;;;;;4998368;28;20208;-64
2023/08/26 12:48:19;;;;;;;0.93;0.70;;;;;;;;;;5000471;28;20220;-64
2023/08/26 12:50:46;;;;;;;1.48;0.57;;;;;;;;;;5017855;28;20204;-64
2023/08/26 12:53:15;;;;;;;0.40;0.40;;;;;;;;;;5011711;28;20683;-64
2023/08/26 12:55:42;;;;;;;1.20;0.38;;;;;;;;;;5025122;28;20200;-65
2023/08/26 12:58:09;;;;;;;0.55;0.55;;;;;;;;;;5026624;28;20231;-65
2023/08/26 13:00:36;;;;;;;0.63;0.60;;;;;;;;;;5020993;28;20197;-64
2023/08/26 13:03:03;;;;;;;0.50;0.50;;;;;;;;;;5012663;28;20225;-65
2023/08/26 13:05:30;;;;;;;0.60;0.60;;;;;;;;;;5012056;28;20989;-64
2023/08/26 13:07:57;;;;;;;0.63;0.60;;;;;;;;;;5007370;28;20228;-64
2023/08/26 13:10:25;;;;;;;0.65;0.65;;;;;;;;;;5006401;28;20216;-64
2023/08/26 13:12:52;;;;;;;0.50;0.50;;;;;;;;;;5001058;28;20766;-64
2023/08/26 13:15:20;;;;;;;0.98;0.60;;;;;;;;;;5001199;28;20220;-64
2023/08/26 13:17:47;;;;;;;1.20;0.52;;;;;;;;;;5000988;28;20786;-64
2023/08/26 13:20:14;;;;;;;1.15;0.70;;;;;;;;;;5003110;28;20217;-64
2023/08/26 13:22:41;;;;;;;0.60;0.60;;;;;;;;;;5009844;28;20255;-62
2023/08/26 13:25:09;;;;;;;0.60;0.60;;;;;;;;;;5002644;28;20209;-64
2023/08/26 13:27:37;;;;;;;0.47;0.47;;;;;;;;;;5004445;28;20232;-64
2023/08/26 13:30:05;;;;;;;0.68;0.50;;;;;;;;;;5006102;28;20205;-64
2023/08/26 13:32:32;;;;;;;0.85;0.60;;;;;;;;;;5004248;28;20205;-64
2023/08/26 13:34:59;;;;;;;1.17;0.52;;;;;;;;;;5006180;28;20683;-64
2023/08/26 13:37:27;;;;;;;0.80;0.50;;;;;;;;;;5021011;28;20212;-64
2023/08/26 13:39:54;;;;;;;0.73;0.73;;;;;;;;;;5023815;28;20208;-63
2023/08/26 13:42:21;;;;;;;0.88;0.82;;;;;;;;;;5025557;28;20239;-63
2023/08/26 13:44:49;;;;;;;0.70;0.70;;;;;;;;;;5023768;28;20216;-63
2023/08/26 13:47:16;;;;;;;1.20;0.70;;;;;;;;;;5005845;28;20219;-63
2023/08/26 13:49:43;;;;;;;0.50;0.50;;;;;;;;;;5009799;28;20674;-63
2023/08/26 13:52:12;;;;;;;0.95;0.60;;;;;;;;;;5015785;28;20667;-64
2023/08/26 13:54:39;;;;;;;0.63;0.55;;;;;;;;;;5003144;28;20209;-64
2023/08/26 13:57:06;;;;;;;0.60;0.60;;;;;;;;;;5010318;28;20216;-64
2023/08/26 13:59:33;;;;;;;1.67;0.63;;;;;;;;;;5009825;28;20232;-65
2023/08/26 14:02:02;;;;;;;0.65;0.63;;;;;;;;;;5014978;28;20614;-64
2023/08/26 14:04:29;;;;;;;0.90;0.68;;;;;;;;;;5021419;28;20215;-64
2023/08/26 14:06:56;;;;;;;0.68;0.68;;;;;;;;;;5019949;28;20212;-65
2023/08/26 14:09:23;;;;;;;0.75;0.75;;;;;;;;;;5005906;28;21192;-64
2023/08/26 14:11:50;;;;;;;0.90;0.75;;;;;;;;;;5016734;28;20402;-64
2023/08/26 14:14:17;;;;;;;0.65;0.60;;;;;;;;;;5019722;28;20208;-65
2023/08/26 14:16:44;;;;;;;0.98;0.60;;;;;;;;;;5020599;28;20220;-65
2023/08/26 14:19:13;;;;;;;2.25;0.60;;;;;;;;;;5005530;28;20193;-65
2023/08/26 14:21:40;;;;;;;2.38;0.60;;;;;;;;;;5006515;28;20217;-65
2023/08/26 14:24:08;;;;;;;1.35;1.00;;;;;;;;;;5020063;28;20263;-65
2023/08/26 14:26:35;;;;;;;0.80;0.80;;;;;;;;;;5017282;28;20357;-65
2023/08/26 14:29:02;;;;;;;1.65;0.90;;;;;;;;;;5005170;28;20212;-64
2023/08/26 14:31:29;;;;;;;0.60;0.60;;;;;;;;;;5012029;28;20208;-61
2023/08/26 14:33:56;;;;;;;2.70;0.82;;;;;;;;;;5013506;28;20204;-61
2023/08/26 14:36:24;;;;;;;0.52;0.52;;;;;;;;;;5020995;28;20216;-62
2023/08/26 14:38:52;;;;;;;1.05;0.80;;;;;;;;;;5019010;28;20214;-62
2023/08/26 14:41:19;;;;;;;1.02;0.90;;;;;;;;;;5019194;28;20936;-62
2023/08/26 14:43:47;;;;;;;0.63;0.63;;;;;;;;;;5005725;28;20227;-63
2023/08/26 14:46:14;;;;;;;3.63;0.85;;;;;;;;;;5017653;28;20205;-63